createdAt,value
2019-01-21T00:00:16.277Z,70.40
2019-01-21T00:00:47.555Z,74.92
2019-01-21T00:01:18.836Z,73.78
2019-01-21T00:01:50.007Z,71.82
2019-01-21T00:02:21.244Z,69.30
2019-01-21T00:02:52.430Z,73.78
2019-01-21T00:03:23.616Z,76.57
2019-01-21T00:03:54.807Z,71.30
2019-01-21T00:04:25.986Z,71.75
2019-01-21T00:04:57.182Z,75.67
2019-01-21T00:05:28.360Z,77.55
2019-01-21T00:05:59.572Z,74.30
2019-01-21T00:06:30.730Z,75.35
2019-01-21T00:07:01.917Z,70.17
2019-01-21T00:07:33.336Z,69.53
2019-01-21T00:08:04.466Z,75.35
2019-01-21T00:08:35.652Z,73.33
2019-01-21T00:09:06.835Z,68.62
2019-01-21T00:09:38.036Z,66.72
2019-01-21T00:10:09.239Z,56.48
2019-01-21T00:10:40.443Z,63.28
2019-01-21T00:11:11.629Z,63.92
2019-01-21T00:11:42.821Z,56.20
2019-01-21T00:12:14.010Z,47.65
2019-01-21T00:12:45.263Z,45.40
2019-01-21T00:13:16.451Z,52.30
2019-01-21T00:13:47.669Z,51.90
2019-01-21T00:14:18.899Z,57.83
2019-01-21T00:14:50.063Z,58.05
2019-01-21T00:15:21.263Z,57.83
2019-01-21T00:15:52.512Z,56.20
2019-01-21T00:16:23.777Z,56.80
2019-01-21T00:16:54.969Z,56.40
2019-01-21T00:17:26.134Z,57.13
2019-01-21T00:17:57.342Z,58.13
2019-01-21T00:18:28.515Z,57.85
2019-01-21T00:18:59.681Z,56.42
2019-01-21T00:19:30.846Z,60.73
2019-01-21T00:20:02.059Z,57.10
2019-01-21T00:20:33.299Z,56.50
2019-01-21T00:21:04.505Z,55.88
2019-01-21T00:21:35.689Z,55.85
2019-01-21T00:22:06.877Z,58.85
2019-01-21T00:22:38.033Z,55.80
2019-01-21T00:23:09.239Z,55.67
2019-01-21T00:23:40.432Z,59.27
2019-01-21T00:24:11.629Z,59.53
2019-01-21T00:24:42.858Z,62.93
2019-01-21T00:25:14.021Z,63.98
2019-01-21T00:25:45.237Z,64.70
2019-01-21T00:26:16.417Z,59.75
2019-01-21T00:26:47.603Z,58.90
2019-01-21T00:27:18.781Z,63.60
2019-01-21T00:27:49.978Z,65.40
2019-01-21T00:28:21.215Z,64.40
2019-01-21T00:28:52.407Z,67.15
2019-01-21T00:29:23.579Z,73.65
2019-01-21T00:29:54.780Z,73.30
2019-01-21T00:30:25.960Z,72.58
2019-01-21T00:30:57.167Z,73.12
2019-01-21T00:31:28.339Z,72.82
2019-01-21T00:31:59.522Z,77.10
2019-01-21T00:32:30.724Z,81.22
2019-01-21T00:33:01.988Z,77.58
2019-01-21T00:33:33.173Z,81.00
2019-01-21T00:34:04.368Z,83.75
2019-01-21T00:34:35.582Z,82.30
2019-01-21T00:35:06.741Z,88.10
2019-01-21T00:35:37.936Z,84.47
2019-01-21T00:36:09.147Z,93.62
2019-01-21T00:36:40.358Z,84.03
2019-01-21T00:37:11.538Z,82.67
2019-01-21T00:37:42.716Z,84.47
2019-01-21T00:38:13.938Z,85.60
2019-01-21T00:38:45.115Z,85.62
2019-01-21T00:39:17.187Z,87.08
2019-01-21T00:39:48.363Z,88.17
2019-01-21T00:40:19.533Z,89.75
2019-01-21T00:40:50.749Z,89.13
2019-01-21T00:41:21.956Z,83.90
2019-01-21T00:41:53.124Z,90.12
2019-01-21T00:42:24.362Z,89.25
2019-01-21T00:42:55.527Z,87.90
2019-01-21T00:43:26.743Z,89.80
2019-01-21T00:43:57.912Z,93.60
2019-01-21T00:44:29.080Z,89.83
2019-01-21T00:45:00.295Z,95.42
2019-01-21T00:45:31.473Z,97.82
2019-01-21T00:46:02.722Z,92.85
2019-01-21T00:46:33.902Z,93.62
2019-01-21T00:47:05.069Z,90.92
2019-01-21T00:47:36.275Z,96.78
2019-01-21T00:48:07.498Z,92.72
2019-01-21T00:48:38.655Z,93.40
2019-01-21T00:49:09.864Z,97.57
2019-01-21T00:49:41.043Z,97.25
2019-01-21T00:50:12.525Z,94.80
2019-01-21T00:50:43.715Z,96.22
2019-01-21T00:51:14.889Z,96.22
2019-01-21T00:51:46.061Z,95.87
2019-01-21T00:52:17.229Z,95.67
2019-01-21T00:52:48.437Z,88.25
2019-01-21T00:53:19.602Z,91.85
2019-01-21T00:53:50.810Z,92.95
2019-01-21T00:54:21.975Z,91.70
2019-01-21T00:54:53.142Z,90.32
2019-01-21T00:55:24.369Z,92.27
2019-01-21T00:55:55.549Z,89.35
2019-01-21T00:56:26.738Z,83.35
2019-01-21T00:56:57.989Z,89.70
2019-01-21T00:57:29.166Z,82.67
2019-01-21T00:58:00.337Z,83.78
2019-01-21T00:58:31.538Z,82.33
2019-01-21T00:59:02.718Z,88.37
2019-01-21T00:59:33.905Z,84.83
2019-01-21T01:00:05.072Z,87.92
2019-01-21T01:00:36.291Z,82.22
2019-01-21T01:01:07.466Z,84.42
2019-01-21T01:01:38.654Z,83.62
2019-01-21T01:02:09.847Z,91.90
2019-01-21T01:02:41.027Z,89.65
2019-01-21T01:03:12.213Z,83.12
2019-01-21T01:03:43.408Z,85.80
2019-01-21T01:04:14.613Z,88.85
2019-01-21T01:04:45.805Z,90.50
2019-01-21T01:05:17.026Z,83.70
2019-01-21T01:05:48.215Z,91.95
2019-01-21T01:06:19.408Z,92.88
2019-01-21T01:06:50.586Z,95.67
2019-01-21T01:07:21.758Z,88.25
2019-01-21T01:07:52.940Z,85.60
2019-01-21T01:08:24.100Z,90.85
2019-01-21T01:08:55.263Z,89.30
2019-01-21T01:09:26.428Z,89.60
2019-01-21T01:09:57.667Z,83.05
2019-01-21T01:10:28.838Z,88.27
2019-01-21T01:11:00.021Z,89.07
2019-01-21T01:11:31.237Z,90.53
2019-01-21T01:12:02.421Z,88.00
2019-01-21T01:12:33.580Z,88.27
2019-01-21T01:13:04.757Z,84.52
2019-01-21T01:13:35.933Z,87.40
2019-01-21T01:14:07.118Z,81.00
2019-01-21T01:14:38.292Z,84.28
2019-01-21T01:15:09.502Z,81.17
2019-01-21T01:15:40.682Z,85.92
2019-01-21T01:16:11.889Z,92.67
2019-01-21T01:16:43.070Z,88.12
2019-01-21T01:17:14.261Z,85.57
2019-01-21T01:17:47.463Z,86.45
2019-01-21T01:18:18.658Z,88.37
2019-01-21T01:18:49.839Z,83.97
2019-01-21T01:19:21.002Z,87.80
2019-01-21T01:19:52.187Z,88.30
2019-01-21T01:20:23.414Z,92.60
2019-01-21T01:20:56.850Z,91.87
2019-01-21T01:21:28.018Z,85.25
2019-01-21T01:21:59.198Z,92.27
2019-01-21T01:22:30.402Z,83.95
2019-01-21T01:23:01.643Z,75.42
2019-01-21T01:23:32.823Z,78.70
2019-01-21T01:24:04.004Z,82.70
2019-01-21T01:24:35.201Z,74.25
2019-01-21T01:25:06.368Z,74.75
2019-01-21T01:25:37.573Z,74.82
2019-01-21T01:26:08.743Z,79.12
2019-01-21T01:26:39.908Z,76.60
2019-01-21T01:27:11.079Z,71.47
2019-01-21T01:27:42.266Z,74.75
2019-01-21T01:28:13.462Z,70.83
2019-01-21T01:28:44.614Z,74.03
2019-01-21T01:29:15.833Z,81.90
2019-01-21T01:29:47.002Z,79.70
2019-01-21T01:30:18.181Z,80.28
2019-01-21T01:30:49.417Z,84.30
2019-01-21T01:31:20.607Z,89.58
2019-01-21T01:31:51.782Z,83.75
2019-01-21T01:32:22.965Z,83.25
2019-01-21T01:32:54.146Z,79.65
2019-01-21T01:33:25.317Z,82.75
2019-01-21T01:33:56.498Z,79.45
2019-01-21T01:34:27.694Z,78.70
2019-01-21T01:34:58.866Z,80.22
2019-01-21T01:35:30.020Z,83.58
2019-01-21T01:36:01.258Z,86.65
2019-01-21T01:36:32.444Z,80.53
2019-01-21T01:37:03.608Z,75.45
2019-01-21T01:37:34.785Z,75.57
2019-01-21T01:38:05.948Z,78.35
2019-01-21T01:38:37.131Z,75.12
2019-01-21T01:39:08.307Z,75.05
2019-01-21T01:39:39.501Z,71.75
2019-01-21T01:40:10.679Z,77.22
2019-01-21T01:40:41.881Z,75.50
2019-01-21T01:41:13.120Z,78.50
2019-01-21T01:41:44.291Z,81.87
2019-01-21T01:42:15.510Z,78.60
2019-01-21T01:42:46.727Z,73.85
2019-01-21T01:43:17.888Z,76.10
2019-01-21T01:43:49.069Z,73.02
2019-01-21T01:44:20.238Z,72.53
2019-01-21T01:44:51.408Z,74.58
2019-01-21T01:45:22.580Z,78.95
2019-01-21T01:45:54.187Z,72.70
2019-01-21T01:46:25.362Z,71.33
2019-01-21T01:46:56.544Z,73.12
2019-01-21T01:47:27.733Z,76.70
2019-01-21T01:47:58.893Z,76.35
2019-01-21T01:48:30.074Z,72.27
2019-01-21T01:49:01.250Z,66.15
2019-01-21T01:49:32.431Z,69.27
2019-01-21T01:50:03.610Z,74.12
2019-01-21T01:50:34.805Z,68.62
2019-01-21T01:51:06.004Z,64.95
2019-01-21T01:51:37.178Z,69.37
2019-01-21T01:52:08.430Z,66.77
2019-01-21T01:52:39.979Z,69.25
2019-01-21T01:53:11.152Z,67.27
2019-01-21T01:53:42.347Z,70.28
2019-01-21T01:54:13.592Z,67.10
2019-01-21T01:54:44.762Z,65.10
2019-01-21T01:55:15.967Z,64.20
2019-01-21T01:55:47.149Z,61.98
2019-01-21T01:56:18.308Z,63.95
2019-01-21T01:56:49.497Z,60.10
2019-01-21T01:57:20.711Z,62.83
2019-01-21T01:57:51.901Z,66.17
2019-01-21T01:58:23.291Z,63.95
2019-01-21T01:58:54.414Z,65.65
2019-01-21T01:59:25.614Z,66.37
2019-01-21T01:59:56.818Z,68.90
2019-01-21T02:00:28.000Z,67.17
2019-01-21T02:00:59.182Z,66.17
2019-01-21T02:01:30.352Z,70.35
2019-01-21T02:02:01.562Z,66.35
2019-01-21T02:02:32.767Z,70.45
2019-01-21T02:03:03.938Z,69.97
2019-01-21T02:03:35.521Z,68.00
2019-01-21T02:04:06.730Z,66.95
2019-01-21T02:04:37.922Z,68.17
2019-01-21T02:05:09.162Z,67.85
2019-01-21T02:05:40.344Z,72.47
2019-01-21T02:06:11.517Z,66.45
2019-01-21T02:06:42.698Z,65.35
2019-01-21T02:07:13.880Z,71.12
2019-01-21T02:07:45.114Z,66.80
2019-01-21T02:08:16.352Z,67.97
2019-01-21T02:08:47.532Z,67.82
2019-01-21T02:09:18.701Z,67.30
2019-01-21T02:09:49.875Z,66.70
2019-01-21T02:10:21.066Z,67.80
2019-01-21T02:10:52.437Z,68.30
2019-01-21T02:11:23.610Z,72.27
2019-01-21T02:11:55.103Z,72.12
2019-01-21T02:12:26.314Z,70.10
2019-01-21T02:12:57.477Z,71.02
2019-01-21T02:13:28.702Z,69.25
2019-01-21T02:13:59.883Z,71.92
2019-01-21T02:14:31.104Z,72.50
2019-01-21T02:15:02.313Z,70.42
2019-01-21T02:15:33.489Z,72.22
2019-01-21T02:16:04.698Z,70.10
2019-01-21T02:16:35.893Z,72.53
2019-01-21T02:17:07.078Z,73.30
2019-01-21T02:17:39.503Z,71.92
2019-01-21T02:18:10.737Z,78.52
2019-01-21T02:18:41.920Z,74.12
2019-01-21T02:19:13.089Z,73.62
2019-01-21T02:19:44.310Z,69.90
2019-01-21T02:20:15.474Z,76.60
2019-01-21T02:20:46.648Z,70.50
2019-01-21T02:21:17.878Z,72.27
2019-01-21T02:21:49.070Z,69.75
2019-01-21T02:22:20.242Z,69.27
2019-01-21T02:22:51.409Z,65.57
2019-01-21T02:23:22.582Z,64.92
2019-01-21T02:23:53.776Z,65.32
2019-01-21T02:24:25.272Z,62.95
2019-01-21T02:24:56.509Z,67.62
2019-01-21T02:25:27.679Z,71.02
2019-01-21T02:25:58.853Z,67.22
2019-01-21T02:26:30.086Z,58.98
2019-01-21T02:27:01.263Z,64.65
2019-01-21T02:27:32.457Z,61.02
2019-01-21T02:28:03.637Z,61.02
2019-01-21T02:28:34.833Z,60.85
2019-01-21T02:29:06.041Z,61.55
2019-01-21T02:29:37.289Z,59.60
2019-01-21T02:30:08.453Z,62.80
2019-01-21T02:30:39.622Z,57.95
2019-01-21T02:31:10.979Z,54.58
2019-01-21T02:31:42.155Z,60.58
2019-01-21T02:32:13.355Z,57.83
2019-01-21T02:32:44.557Z,59.70
2019-01-21T02:33:15.744Z,60.88
2019-01-21T02:33:46.921Z,58.68
2019-01-21T02:34:18.139Z,61.18
2019-01-21T02:34:49.374Z,62.88
2019-01-21T02:35:20.618Z,58.40
2019-01-21T02:35:51.804Z,57.95
2019-01-21T02:36:22.992Z,56.20
2019-01-21T02:36:54.374Z,57.30
2019-01-21T02:37:25.561Z,60.10
2019-01-21T02:37:57.266Z,57.65
2019-01-21T02:38:28.502Z,61.42
2019-01-21T02:38:59.707Z,59.75
2019-01-21T02:39:30.899Z,57.53
2019-01-21T02:40:02.052Z,56.68
2019-01-21T02:40:33.246Z,59.00
2019-01-21T02:41:04.466Z,57.13
2019-01-21T02:41:35.693Z,57.85
2019-01-21T02:42:06.858Z,59.33
2019-01-21T02:42:38.038Z,57.25
2019-01-21T02:43:09.209Z,59.15
2019-01-21T02:43:40.680Z,60.08
2019-01-21T02:44:11.855Z,64.58
2019-01-21T02:44:43.027Z,60.67
2019-01-21T02:45:14.224Z,55.48
2019-01-21T02:45:45.465Z,56.70
2019-01-21T02:46:16.649Z,57.85
2019-01-21T02:46:47.811Z,66.37
2019-01-21T02:47:18.995Z,60.78
2019-01-21T02:47:50.161Z,62.90
2019-01-21T02:48:21.340Z,63.73
2019-01-21T02:48:52.515Z,59.77
2019-01-21T02:49:23.763Z,62.43
2019-01-21T02:49:54.958Z,59.23
2019-01-21T02:50:26.704Z,59.83
2019-01-21T02:50:57.908Z,63.83
2019-01-21T02:51:29.133Z,60.28
2019-01-21T02:52:00.366Z,62.90
2019-01-21T02:52:31.521Z,62.15
2019-01-21T02:53:02.707Z,58.95
2019-01-21T02:53:33.876Z,60.50
2019-01-21T02:54:05.049Z,61.65
2019-01-21T02:54:36.242Z,65.08
2019-01-21T02:55:07.468Z,57.83
2019-01-21T02:55:38.636Z,60.20
2019-01-21T02:56:09.909Z,59.85
2019-01-21T02:56:41.091Z,65.42
2019-01-21T02:57:12.609Z,61.53
2019-01-21T02:57:43.763Z,61.35
2019-01-21T02:58:15.016Z,60.90
2019-01-21T02:58:46.181Z,64.12
2019-01-21T02:59:17.366Z,61.55
2019-01-21T02:59:48.565Z,61.45
2019-01-21T03:00:19.766Z,59.98
2019-01-21T03:00:50.950Z,57.53
2019-01-21T03:01:22.157Z,59.40
2019-01-21T03:01:53.385Z,63.50
2019-01-21T03:02:24.571Z,64.12
2019-01-21T03:02:56.039Z,65.15
2019-01-21T03:03:27.216Z,60.23
2019-01-21T03:03:58.500Z,59.18
2019-01-21T03:04:29.671Z,65.10
2019-01-21T03:05:00.876Z,61.95
2019-01-21T03:05:32.074Z,61.18
2019-01-21T03:06:03.246Z,60.52
2019-01-21T03:06:34.413Z,59.83
2019-01-21T03:07:05.626Z,61.50
2019-01-21T03:07:36.821Z,62.83
2019-01-21T03:08:08.047Z,62.62
2019-01-21T03:08:39.210Z,63.63
2019-01-21T03:09:10.409Z,62.05
2019-01-21T03:09:42.198Z,58.60
2019-01-21T03:10:13.385Z,60.52
2019-01-21T03:10:44.600Z,62.10
2019-01-21T03:11:15.777Z,62.50
2019-01-21T03:11:46.976Z,59.35
2019-01-21T03:12:18.170Z,57.83
2019-01-21T03:12:49.336Z,56.20
2019-01-21T03:13:20.525Z,56.25
2019-01-21T03:13:51.689Z,61.48
2019-01-21T03:14:22.942Z,60.10
2019-01-21T03:14:54.118Z,54.98
2019-01-21T03:15:25.460Z,57.62
2019-01-21T03:15:56.637Z,59.73
2019-01-21T03:16:28.431Z,62.25
2019-01-21T03:16:59.607Z,55.98
2019-01-21T03:17:30.780Z,56.00
2019-01-21T03:18:07.891Z,57.03
2019-01-21T03:18:34.880Z,54.03
2019-01-21T03:19:06.081Z,55.95
2019-01-21T03:19:37.251Z,55.43
2019-01-21T03:20:08.423Z,54.65
2019-01-21T03:20:39.637Z,55.17
2019-01-21T03:21:13.074Z,51.30
2019-01-21T03:21:44.253Z,55.98
2019-01-21T03:22:15.434Z,58.63
2019-01-21T03:22:46.628Z,56.40
2019-01-21T03:23:18.279Z,56.70
2019-01-21T03:23:49.439Z,51.35
2019-01-21T03:24:20.629Z,50.28
2019-01-21T03:24:51.795Z,49.83
2019-01-21T03:25:22.975Z,50.78
2019-01-21T03:25:54.236Z,50.12
2019-01-21T03:26:25.401Z,48.38
2019-01-21T03:26:56.575Z,53.02
2019-01-21T03:27:27.773Z,49.30
2019-01-21T03:27:58.969Z,51.37
2019-01-21T03:28:30.142Z,54.50
2019-01-21T03:29:01.354Z,51.30
2019-01-21T03:29:32.544Z,54.48
2019-01-21T03:30:04.351Z,49.80
2019-01-21T03:30:35.927Z,44.38
2019-01-21T03:31:07.158Z,45.83
2019-01-21T03:31:38.326Z,49.48
2019-01-21T03:32:09.500Z,48.20
2019-01-21T03:32:40.654Z,48.83
2019-01-21T03:33:11.845Z,49.25
2019-01-21T03:33:43.019Z,52.23
2019-01-21T03:34:14.238Z,50.08
2019-01-21T03:34:45.407Z,48.87
2019-01-21T03:35:16.609Z,52.70
2019-01-21T03:35:48.052Z,50.95
2019-01-21T03:36:19.225Z,50.20
2019-01-21T03:36:50.411Z,48.13
2019-01-21T03:37:21.582Z,49.90
2019-01-21T03:37:52.758Z,50.38
2019-01-21T03:38:23.967Z,51.95
2019-01-21T03:38:55.161Z,46.13
2019-01-21T03:39:26.330Z,49.10
2019-01-21T03:39:57.515Z,50.63
2019-01-21T03:40:28.732Z,47.00
2019-01-21T03:40:59.897Z,45.20
2019-01-21T03:41:31.073Z,47.80
2019-01-21T03:42:02.307Z,45.40
2019-01-21T03:42:33.956Z,47.95
2019-01-21T03:43:05.200Z,41.55
2019-01-21T03:43:36.372Z,49.27
2019-01-21T03:44:07.547Z,51.58
2019-01-21T03:44:38.731Z,51.80
2019-01-21T03:45:09.905Z,54.10
2019-01-21T03:45:41.072Z,54.98
2019-01-21T03:46:12.262Z,53.58
2019-01-21T03:46:43.437Z,55.00
2019-01-21T03:47:14.666Z,48.30
2019-01-21T03:47:45.821Z,52.55
2019-01-21T03:48:17.236Z,49.40
2019-01-21T03:48:48.420Z,51.58
2019-01-21T03:49:20.129Z,47.10
2019-01-21T03:49:51.304Z,51.33
2019-01-21T03:50:22.471Z,50.08
2019-01-21T03:50:53.646Z,51.55
2019-01-21T03:51:24.834Z,52.80
2019-01-21T03:51:56.012Z,49.33
2019-01-21T03:52:27.234Z,51.68
2019-01-21T03:52:58.419Z,48.78
2019-01-21T03:53:29.598Z,51.63
2019-01-21T03:54:00.762Z,52.13
2019-01-21T03:54:31.927Z,48.42
2019-01-21T03:55:03.379Z,47.98
2019-01-21T03:55:34.905Z,50.35
2019-01-21T03:56:06.108Z,47.10
2019-01-21T03:56:37.304Z,49.70
2019-01-21T03:57:08.526Z,48.35
2019-01-21T03:57:39.713Z,47.58
2019-01-21T03:58:10.872Z,50.48
2019-01-21T03:58:42.065Z,49.75
2019-01-21T03:59:13.227Z,45.98
2019-01-21T03:59:44.406Z,46.75
2019-01-21T04:00:15.571Z,46.70
2019-01-21T04:00:46.746Z,43.20
2019-01-21T04:01:17.919Z,40.63
2019-01-21T04:01:49.273Z,44.90
2019-01-21T04:02:20.522Z,44.20
2019-01-21T04:02:51.744Z,46.48
2019-01-21T04:03:22.956Z,46.37
2019-01-21T04:03:54.186Z,44.10
2019-01-21T04:04:25.336Z,43.23
2019-01-21T04:04:56.509Z,45.78
2019-01-21T04:05:27.691Z,44.95
2019-01-21T04:05:58.874Z,44.50
2019-01-21T04:06:30.168Z,41.58
2019-01-21T04:07:01.379Z,43.25
2019-01-21T04:07:32.767Z,38.78
2019-01-21T04:08:03.946Z,42.53
2019-01-21T04:08:35.191Z,42.25
2019-01-21T04:09:06.393Z,46.23
2019-01-21T04:09:37.581Z,43.55
2019-01-21T04:10:08.685Z,39.78
2019-01-21T04:10:39.857Z,41.85
2019-01-21T04:11:11.024Z,45.23
2019-01-21T04:11:42.267Z,40.52
2019-01-21T04:12:13.441Z,46.30
2019-01-21T04:12:44.617Z,43.68
2019-01-21T04:13:15.805Z,46.55
2019-01-21T04:13:47.016Z,46.13
2019-01-21T04:14:18.722Z,45.08
2019-01-21T04:14:49.901Z,41.68
2019-01-21T04:15:21.074Z,44.67
2019-01-21T04:15:52.293Z,45.98
2019-01-21T04:16:23.475Z,46.10
2019-01-21T04:16:54.642Z,43.83
2019-01-21T04:17:25.850Z,43.55
2019-01-21T04:17:57.032Z,40.15
2019-01-21T04:18:28.203Z,46.00
2019-01-21T04:18:59.383Z,47.05
2019-01-21T04:19:30.572Z,44.63
2019-01-21T04:20:01.886Z,45.78
2019-01-21T04:20:33.046Z,45.25
2019-01-21T04:21:04.667Z,43.58
2019-01-21T04:21:35.816Z,44.77
2019-01-21T04:22:07.033Z,42.30
2019-01-21T04:22:38.283Z,41.50
2019-01-21T04:23:09.504Z,43.83
2019-01-21T04:23:40.721Z,43.73
2019-01-21T04:24:11.894Z,44.25
2019-01-21T04:24:43.102Z,41.53
2019-01-21T04:25:14.321Z,42.62
2019-01-21T04:25:45.505Z,44.20
2019-01-21T04:26:16.696Z,42.95
2019-01-21T04:26:48.141Z,43.90
2019-01-21T04:27:19.347Z,46.68
2019-01-21T04:27:50.551Z,45.20
2019-01-21T04:28:21.784Z,40.12
2019-01-21T04:28:52.955Z,40.88
2019-01-21T04:29:24.131Z,41.60
2019-01-21T04:29:55.302Z,42.23
2019-01-21T04:30:26.470Z,42.90
2019-01-21T04:30:57.653Z,43.75
2019-01-21T04:31:28.799Z,42.35
2019-01-21T04:31:59.971Z,43.02
2019-01-21T04:32:31.163Z,44.48
2019-01-21T04:33:02.341Z,42.83
2019-01-21T04:33:33.842Z,40.00
2019-01-21T04:34:05.014Z,41.95
2019-01-21T04:34:36.223Z,40.52
2019-01-21T04:35:07.400Z,41.08
2019-01-21T04:35:38.584Z,43.52
2019-01-21T04:36:09.765Z,42.93
2019-01-21T04:36:40.962Z,42.88
2019-01-21T04:37:12.185Z,44.45
2019-01-21T04:37:43.357Z,46.05
2019-01-21T04:38:14.526Z,45.85
2019-01-21T04:38:45.699Z,46.63
2019-01-21T04:39:17.075Z,44.53
2019-01-21T04:39:48.246Z,46.75
2019-01-21T04:40:19.600Z,43.02
2019-01-21T04:40:50.867Z,42.30
2019-01-21T04:41:22.052Z,42.85
2019-01-21T04:41:53.323Z,50.48
2019-01-21T04:42:24.502Z,45.60
2019-01-21T04:42:55.751Z,42.35
2019-01-21T04:43:26.969Z,44.23
2019-01-21T04:43:58.224Z,44.08
2019-01-21T04:44:29.398Z,46.02
2019-01-21T04:45:00.694Z,46.35
2019-01-21T04:45:31.932Z,45.30
2019-01-21T04:46:03.797Z,43.90
2019-01-21T04:46:34.971Z,46.55
2019-01-21T04:47:06.206Z,45.30
2019-01-21T04:47:37.403Z,45.17
2019-01-21T04:48:08.587Z,42.50
2019-01-21T04:48:39.831Z,41.63
2019-01-21T04:49:11.018Z,43.83
2019-01-21T04:49:42.165Z,46.05
2019-01-21T04:50:13.338Z,48.25
2019-01-21T04:50:44.500Z,44.42
2019-01-21T04:51:15.727Z,44.48
2019-01-21T04:51:46.900Z,47.35
2019-01-21T04:52:18.074Z,46.85
2019-01-21T04:52:49.897Z,46.05
2019-01-21T04:53:21.042Z,46.92
2019-01-21T04:53:52.246Z,46.10
2019-01-21T04:54:23.414Z,45.20
2019-01-21T04:54:54.587Z,50.05
2019-01-21T04:55:25.756Z,46.33
2019-01-21T04:55:56.994Z,47.58
2019-01-21T04:56:28.197Z,46.70
2019-01-21T04:56:59.395Z,48.38
2019-01-21T04:57:30.561Z,49.65
2019-01-21T04:58:01.796Z,48.87
2019-01-21T04:58:33.278Z,49.80
2019-01-21T04:59:04.496Z,47.78
2019-01-21T04:59:35.672Z,47.35
2019-01-21T05:00:06.852Z,48.15
2019-01-21T05:00:38.021Z,48.00
2019-01-21T05:01:09.230Z,48.10
2019-01-21T05:01:40.447Z,47.85
2019-01-21T05:02:11.578Z,48.20
2019-01-21T05:02:42.775Z,46.48
2019-01-21T05:03:14.009Z,47.38
2019-01-21T05:03:45.192Z,51.33
2019-01-21T05:04:16.378Z,48.33
2019-01-21T05:04:47.627Z,46.85
2019-01-21T05:05:19.211Z,46.65
2019-01-21T05:05:50.408Z,47.35
2019-01-21T05:06:21.575Z,50.23
2019-01-21T05:06:52.752Z,48.35
2019-01-21T05:07:23.930Z,44.25
2019-01-21T05:07:55.130Z,46.33
2019-01-21T05:08:26.433Z,46.13
2019-01-21T05:08:57.609Z,49.80
2019-01-21T05:09:28.843Z,49.58
2019-01-21T05:10:00.021Z,48.08
2019-01-21T05:10:31.183Z,47.95
2019-01-21T05:11:02.643Z,48.05
2019-01-21T05:11:33.844Z,48.42
2019-01-21T05:12:05.018Z,48.05
2019-01-21T05:12:36.199Z,49.63
2019-01-21T05:13:08.196Z,43.08
2019-01-21T05:13:39.400Z,42.33
2019-01-21T05:14:10.557Z,44.40
2019-01-21T05:14:41.724Z,46.75
2019-01-21T05:15:12.898Z,46.48
2019-01-21T05:15:44.078Z,40.20
2019-01-21T05:16:15.264Z,46.68
2019-01-21T05:16:46.431Z,50.30
2019-01-21T05:17:17.630Z,44.00
2019-01-21T05:17:49.086Z,45.60
2019-01-21T05:18:20.245Z,44.27
2019-01-21T05:18:51.440Z,40.58
2019-01-21T05:19:22.625Z,45.38
2019-01-21T05:19:53.848Z,44.05
2019-01-21T05:20:25.006Z,44.73
2019-01-21T05:20:56.227Z,48.23
2019-01-21T05:21:27.441Z,45.30
2019-01-21T05:21:58.616Z,44.98
2019-01-21T05:22:29.791Z,41.08
2019-01-21T05:23:00.971Z,43.42
2019-01-21T05:23:32.414Z,42.13
2019-01-21T05:24:03.592Z,44.58
2019-01-21T05:24:34.822Z,45.43
2019-01-21T05:25:06.005Z,44.18
2019-01-21T05:25:37.236Z,44.83
2019-01-21T05:26:08.494Z,46.48
2019-01-21T05:26:39.666Z,44.53
2019-01-21T05:27:10.851Z,44.48
2019-01-21T05:27:42.054Z,43.85
2019-01-21T05:28:13.219Z,43.55
2019-01-21T05:28:44.426Z,44.85
2019-01-21T05:29:15.606Z,44.20
2019-01-21T05:29:46.765Z,47.45
2019-01-21T05:30:18.275Z,46.30
2019-01-21T05:30:49.452Z,42.33
2019-01-21T05:31:20.638Z,43.63
2019-01-21T05:31:53.960Z,44.25
2019-01-21T05:32:24.829Z,45.95
2019-01-21T05:32:56.009Z,43.65
2019-01-21T05:33:27.213Z,45.17
2019-01-21T05:33:58.405Z,45.85
2019-01-21T05:34:29.612Z,41.90
2019-01-21T05:35:00.785Z,44.70
2019-01-21T05:35:31.946Z,42.13
2019-01-21T05:36:03.281Z,41.18
2019-01-21T05:36:34.471Z,40.78
2019-01-21T05:37:05.679Z,40.03
2019-01-21T05:37:36.922Z,42.00
2019-01-21T05:38:08.168Z,42.95
2019-01-21T05:38:39.304Z,40.38
2019-01-21T05:39:10.496Z,46.63
2019-01-21T05:39:41.701Z,40.35
2019-01-21T05:40:12.919Z,42.98
2019-01-21T05:40:44.148Z,42.60
2019-01-21T05:41:15.349Z,42.90
2019-01-21T05:41:46.532Z,42.30
2019-01-21T05:42:17.738Z,41.98
2019-01-21T05:42:48.934Z,44.38
2019-01-21T05:43:20.112Z,45.15
2019-01-21T05:43:51.291Z,44.45
2019-01-21T05:44:22.488Z,48.17
2019-01-21T05:44:53.696Z,50.40
2019-01-21T05:45:24.893Z,51.80
2019-01-21T05:45:56.090Z,50.20
2019-01-21T05:46:27.294Z,46.85
2019-01-21T05:46:58.492Z,47.53
2019-01-21T05:47:29.659Z,44.03
2019-01-21T05:48:00.839Z,48.98
2019-01-21T05:48:32.034Z,48.13
2019-01-21T05:49:03.225Z,44.27
2019-01-21T05:49:34.412Z,36.85
2019-01-21T05:50:05.595Z,39.55
2019-01-21T05:50:36.801Z,43.75
2019-01-21T05:51:07.987Z,42.50
2019-01-21T05:51:39.172Z,42.03
2019-01-21T05:52:10.409Z,45.98
2019-01-21T05:52:41.575Z,42.50
2019-01-21T05:53:13.562Z,43.70
2019-01-21T05:53:44.756Z,42.70
2019-01-21T05:54:15.956Z,44.65
2019-01-21T05:54:47.153Z,43.63
2019-01-21T05:55:18.353Z,44.70
2019-01-21T05:55:49.533Z,48.68
2019-01-21T05:56:20.779Z,48.83
2019-01-21T05:56:51.974Z,50.03
2019-01-21T05:57:23.142Z,48.02
2019-01-21T05:57:54.320Z,47.35
2019-01-21T05:58:25.567Z,48.48
2019-01-21T05:58:56.779Z,46.95
2019-01-21T05:59:27.959Z,43.13
2019-01-21T05:59:59.133Z,47.45
2019-01-21T06:00:30.305Z,47.40
2019-01-21T06:01:01.462Z,49.30
2019-01-21T06:01:32.638Z,48.10
2019-01-21T06:02:03.871Z,52.55
2019-01-21T06:02:35.081Z,51.35
2019-01-21T06:03:06.266Z,56.40
2019-01-21T06:03:37.418Z,68.87
2019-01-21T06:04:08.591Z,105.85
2019-01-21T06:04:39.771Z,56.63
2019-01-21T06:05:10.946Z,48.68
2019-01-21T06:05:42.130Z,54.40
2019-01-21T06:06:13.381Z,60.83
2019-01-21T06:06:44.611Z,63.95
2019-01-21T06:07:15.789Z,52.90
2019-01-21T06:07:46.984Z,46.10
2019-01-21T06:08:18.160Z,41.48
2019-01-21T06:08:49.373Z,45.03
2019-01-21T06:09:20.573Z,45.20
2019-01-21T06:09:51.743Z,52.08
2019-01-21T06:10:22.934Z,56.50
2019-01-21T06:10:54.104Z,61.83
2019-01-21T06:11:25.294Z,68.33
2019-01-21T06:11:56.494Z,59.08
2019-01-21T06:12:27.660Z,56.35
2019-01-21T06:12:58.828Z,59.15
2019-01-21T06:13:30.336Z,65.50
2019-01-21T06:14:01.514Z,67.03
2019-01-21T06:14:32.718Z,66.10
2019-01-21T06:15:03.887Z,68.02
2019-01-21T06:15:35.062Z,71.42
2019-01-21T06:16:06.249Z,67.03
2019-01-21T06:16:37.417Z,67.35
2019-01-21T06:17:08.586Z,68.70
2019-01-21T06:17:39.796Z,73.55
2019-01-21T06:18:11.001Z,72.10
2019-01-21T06:18:42.169Z,77.12
2019-01-21T06:19:13.351Z,75.65
2019-01-21T06:19:44.528Z,73.12
2019-01-21T06:20:15.703Z,74.03
2019-01-21T06:20:46.873Z,75.17
2019-01-21T06:21:18.086Z,76.22
2019-01-21T06:21:49.269Z,71.70
2019-01-21T06:22:20.442Z,73.28
2019-01-21T06:22:51.669Z,68.30
2019-01-21T06:23:22.858Z,68.37
2019-01-21T06:23:54.014Z,69.97
2019-01-21T06:24:25.202Z,72.87
2019-01-21T06:24:56.364Z,71.87
2019-01-21T06:25:27.575Z,63.33
2019-01-21T06:25:58.855Z,67.85
2019-01-21T06:26:30.122Z,64.25
2019-01-21T06:27:01.278Z,64.10
2019-01-21T06:27:32.488Z,65.25
2019-01-21T06:28:03.666Z,63.30
2019-01-21T06:28:34.850Z,63.38
2019-01-21T06:29:06.027Z,64.17
2019-01-21T06:29:37.216Z,63.42
2019-01-21T06:30:08.393Z,64.03
2019-01-21T06:30:39.605Z,63.58
2019-01-21T06:31:10.870Z,60.43
2019-01-21T06:31:42.025Z,62.38
2019-01-21T06:32:13.237Z,65.45
2019-01-21T06:32:44.433Z,63.17
2019-01-21T06:33:15.611Z,63.42
2019-01-21T06:33:46.860Z,63.15
2019-01-21T06:34:18.035Z,63.55
2019-01-21T06:34:49.237Z,57.88
2019-01-21T06:35:20.457Z,60.40
2019-01-21T06:35:51.604Z,62.60
2019-01-21T06:36:22.794Z,57.45
2019-01-21T06:36:54.042Z,62.93
2019-01-21T06:37:25.264Z,59.13
2019-01-21T06:37:56.395Z,55.08
2019-01-21T06:38:27.557Z,59.85
2019-01-21T06:38:58.776Z,58.92
2019-01-21T06:39:29.947Z,58.58
2019-01-21T06:40:01.149Z,58.42
2019-01-21T06:40:32.336Z,60.28
2019-01-21T06:41:03.493Z,55.45
2019-01-21T06:41:34.725Z,53.75
2019-01-21T06:42:05.886Z,59.88